createdAt,value
2019-02-07T00:01:01.613Z,2.50
2019-02-07T00:03:31.066Z,2.40
2019-02-07T00:06:01.030Z,2.40
2019-02-07T00:08:30.482Z,2.50
2019-02-07T00:10:59.937Z,2.30
2019-02-07T00:13:29.422Z,2.40
2019-02-07T00:15:58.873Z,2.50
2019-02-07T00:18:28.342Z,2.40
2019-02-07T00:20:58.111Z,2.50
2019-02-07T00:23:27.566Z,2.50
2019-02-07T00:25:57.088Z,2.60
2019-02-07T00:28:26.735Z,2.60
2019-02-07T00:30:56.271Z,2.60
2019-02-07T00:33:25.751Z,2.60
2019-02-07T00:35:55.575Z,2.60
2019-02-07T00:38:25.019Z,2.70
2019-02-07T00:40:54.474Z,2.70
2019-02-07T00:43:23.959Z,2.70
2019-02-07T00:45:53.414Z,2.70
2019-02-07T00:48:22.864Z,2.70
2019-02-07T00:50:52.632Z,2.70
2019-02-07T00:53:22.086Z,2.60
2019-02-07T00:55:51.545Z,2.70
2019-02-07T00:58:21.166Z,2.60
2019-02-07T01:00:50.686Z,2.60
2019-02-07T01:03:20.132Z,2.70
2019-02-07T01:05:49.626Z,2.60
2019-02-07T01:08:19.212Z,2.10
2019-02-07T01:10:49.169Z,1.30
2019-02-07T01:13:18.725Z,1.50
2019-02-07T01:15:48.182Z,2.00
2019-02-07T01:18:17.953Z,2.30
2019-02-07T01:20:47.520Z,2.30
2019-02-07T01:23:17.036Z,1.30
2019-02-07T01:25:46.487Z,1.40
2019-02-07T01:28:15.973Z,2.30
2019-02-07T01:30:45.433Z,2.40
2019-02-07T01:33:14.954Z,2.50
2019-02-07T01:35:44.535Z,2.50
2019-02-07T01:38:14.078Z,2.30
2019-02-07T01:40:43.524Z,2.00
2019-02-07T01:43:13.017Z,2.20
2019-02-07T01:45:42.470Z,2.20
2019-02-07T01:48:12.199Z,2.00
2019-02-07T01:50:41.683Z,2.20
2019-02-07T01:53:11.200Z,2.30
2019-02-07T01:55:40.656Z,2.20
2019-02-07T01:58:10.223Z,2.00
2019-02-07T02:00:39.665Z,2.10
2019-02-07T02:03:09.298Z,2.00
2019-02-07T02:05:38.820Z,2.10
2019-02-07T02:08:08.360Z,2.20
2019-02-07T02:10:37.775Z,2.10
2019-02-07T02:13:07.501Z,2.00
2019-02-07T02:15:36.952Z,2.20
2019-02-07T02:18:06.856Z,2.30
2019-02-07T02:20:36.419Z,2.10
2019-02-07T02:23:05.940Z,2.30
2019-02-07T02:25:35.462Z,2.30
2019-02-07T02:28:05.277Z,2.30
2019-02-07T02:30:36.769Z,2.10
2019-02-07T02:33:06.779Z,1.40
2019-02-07T02:35:36.273Z,2.00
2019-02-07T02:38:05.799Z,2.10
2019-02-07T02:40:35.244Z,1.70
2019-02-07T02:43:04.809Z,1.50
2019-02-07T02:45:37.739Z,1.90
2019-02-07T02:48:05.838Z,2.20
2019-02-07T02:50:35.311Z,2.10
2019-02-07T02:53:04.835Z,2.10
2019-02-07T02:55:35.926Z,2.20
2019-02-07T02:58:06.522Z,2.00
2019-02-07T03:00:40.809Z,1.90
2019-02-07T03:03:19.090Z,1.60
2019-02-07T03:05:59.132Z,1.90
2019-02-07T03:08:30.287Z,1.90
2019-02-07T03:11:07.608Z,1.70
2019-02-07T03:13:54.948Z,1.20
2019-02-07T03:16:32.022Z,1.70
2019-02-07T03:19:03.433Z,1.00
2019-02-07T03:21:37.489Z,1.70
2019-02-07T03:24:18.003Z,1.90
2019-02-07T03:26:54.772Z,1.40
2019-02-07T03:29:25.898Z,1.20
2019-02-07T03:32:02.826Z,0.30
2019-02-07T03:34:50.047Z,0.30
2019-02-07T03:37:33.481Z,0.40
2019-02-07T03:40:07.272Z,0.60
2019-02-07T03:42:47.107Z,0.30
2019-02-07T03:45:20.961Z,0.90
2019-02-07T03:47:52.062Z,0.80
2019-02-07T03:50:41.136Z,1.00
2019-02-07T03:53:17.973Z,0.90
2019-02-07T03:55:52.119Z,1.30
2019-02-07T03:58:23.213Z,1.50
2019-02-07T04:01:06.701Z,1.20
2019-02-07T04:03:49.840Z,1.40
2019-02-07T04:06:22.686Z,1.40
2019-02-07T04:09:11.351Z,0.80
2019-02-07T04:11:45.228Z,0.80
2019-02-07T04:14:34.612Z,1.10
2019-02-07T04:17:21.907Z,1.40
2019-02-07T04:19:53.182Z,1.40
2019-02-07T04:22:40.543Z,1.50
2019-02-07T04:25:26.817Z,1.60
2019-02-07T04:28:06.726Z,1.60
2019-02-07T04:30:43.252Z,1.30
2019-02-07T04:33:23.260Z,1.50
2019-02-07T04:36:12.847Z,1.50
2019-02-07T04:38:46.681Z,1.40
2019-02-07T04:41:29.753Z,1.00
2019-02-07T04:44:07.010Z,0.80
2019-02-07T04:46:47.053Z,1.30
2019-02-07T04:49:33.509Z,1.20
2019-02-07T04:52:10.660Z,1.30
2019-02-07T04:54:44.965Z,0.90
2019-02-07T04:57:16.159Z,1.60
2019-02-07T04:59:53.270Z,1.60
2019-02-07T05:05:18.490Z,0.70
2019-02-07T05:07:55.428Z,0.90
2019-02-07T05:10:42.967Z,1.20
2019-02-07T05:13:29.216Z,1.40
2019-02-07T05:16:03.309Z,1.00
2019-02-07T05:18:37.086Z,0.90
2019-02-07T05:21:24.475Z,0.70
2019-02-07T05:23:58.562Z,1.00
2019-02-07T05:26:29.879Z,0.90
2019-02-07T05:29:07.168Z,0.90
2019-02-07T05:31:50.327Z,1.00
2019-02-07T05:34:37.865Z,1.10
2019-02-07T05:39:51.075Z,1.20
2019-02-07T05:42:38.662Z,1.00
2019-02-07T05:45:29.009Z,0.80
2019-02-07T05:48:05.719Z,1.00
2019-02-07T05:50:37.131Z,1.30
2019-02-07T05:53:23.250Z,1.30
2019-02-07T05:56:06.192Z,1.20
2019-02-07T05:58:37.728Z,1.40
2019-02-07T06:01:25.060Z,1.30
2019-02-07T06:03:56.148Z,1.50
2019-02-07T06:06:42.480Z,1.40
2019-02-07T06:09:28.770Z,1.30
2019-02-07T06:12:15.997Z,1.40
2019-02-07T06:14:53.050Z,1.20
2019-02-07T06:17:39.544Z,1.00
2019-02-07T06:20:14.134Z,0.80
2019-02-07T06:22:45.543Z,1.00
2019-02-07T06:25:16.720Z,1.20
2019-02-07T06:27:50.483Z,1.20
2019-02-07T06:30:24.558Z,1.10
2019-02-07T06:33:12.028Z,1.00
2019-02-07T06:35:43.173Z,1.00
2019-02-07T06:41:31.428Z,1.30
2019-02-07T06:44:17.763Z,1.30
2019-02-07T06:46:52.195Z,1.20
2019-02-07T06:49:23.290Z,0.90
2019-02-07T06:52:06.287Z,1.10
2019-02-07T06:54:40.289Z,0.90
2019-02-07T06:57:20.315Z,0.70
2019-02-07T07:00:06.374Z,1.10
2019-02-07T07:02:46.258Z,1.10
2019-02-07T07:05:20.484Z,1.00
2019-02-07T07:07:51.625Z,0.70
2019-02-07T07:10:31.524Z,0.90
2019-02-07T07:13:14.321Z,0.90
2019-02-07T07:15:45.373Z,1.00
2019-02-07T07:18:16.465Z,0.90
2019-02-07T07:21:04.288Z,1.00
2019-02-07T07:23:41.282Z,0.90
2019-02-07T07:26:12.548Z,0.90
2019-02-07T07:28:46.324Z,0.70
2019-02-07T07:31:32.408Z,0.70
2019-02-07T07:34:09.792Z,0.90
2019-02-07T07:36:43.810Z,0.70
2019-02-07T07:39:14.901Z,0.70
2019-02-07T07:41:46.239Z,0.80
2019-02-07T07:44:23.330Z,0.80
2019-02-07T07:46:54.410Z,0.90
2019-02-07T07:49:28.380Z,0.80
2019-02-07T07:51:59.513Z,0.80
2019-02-07T07:54:46.926Z,0.90
2019-02-07T07:57:26.831Z,0.70
2019-02-07T07:59:57.921Z,1.00
2019-02-07T08:02:44.676Z,1.10
2019-02-07T08:05:21.829Z,1.00
2019-02-07T08:07:52.961Z,1.10
2019-02-07T08:10:39.309Z,1.20
2019-02-07T08:13:13.240Z,1.10
2019-02-07T08:16:01.059Z,1.30
2019-02-07T08:18:35.207Z,1.20
2019-02-07T08:21:06.464Z,1.30
2019-02-07T08:23:49.693Z,1.30
2019-02-07T08:26:23.498Z,1.30
2019-02-07T08:28:57.587Z,1.40
2019-02-07T08:31:40.734Z,1.40
2019-02-07T08:34:14.691Z,1.40
2019-02-07T08:36:51.981Z,1.40
2019-02-07T08:39:25.814Z,1.40
2019-02-07T08:42:02.970Z,1.50
2019-02-07T08:44:50.539Z,1.50
2019-02-07T08:47:21.652Z,1.60
2019-02-07T08:49:58.608Z,1.70
2019-02-07T08:52:29.777Z,1.30
2019-02-07T08:55:03.883Z,1.30
2019-02-07T08:57:37.945Z,1.50
2019-02-07T09:00:16.564Z,1.40
2019-02-07T09:02:56.953Z,1.70
2019-02-07T09:05:31.376Z,1.50
2019-02-07T09:08:19.082Z,1.70
2019-02-07T09:10:50.283Z,1.70
2019-02-07T09:13:24.112Z,1.70
2019-02-07T09:16:10.812Z,1.30
2019-02-07T09:18:57.892Z,1.10
2019-02-07T09:21:44.424Z,1.10
2019-02-07T09:24:18.243Z,1.40
2019-02-07T09:26:52.395Z,1.80
2019-02-07T09:29:40.029Z,1.90
2019-02-07T09:32:14.220Z,2.00
2019-02-07T09:34:51.067Z,2.00
2019-02-07T09:37:22.198Z,2.20
2019-02-07T09:39:59.205Z,2.10
2019-02-07T09:42:45.313Z,2.20
2019-02-07T09:45:28.528Z,2.30
2019-02-07T09:48:21.631Z,2.30
2019-02-07T09:51:07.041Z,2.50
2019-02-07T09:53:38.201Z,2.50
2019-02-07T09:56:18.269Z,2.70
2019-02-07T09:58:52.431Z,2.80
2019-02-07T10:01:32.501Z,2.80
2019-02-07T10:04:12.909Z,3.00
2019-02-07T10:07:02.156Z,3.10
2019-02-07T10:09:45.334Z,3.10
2019-02-07T10:12:32.883Z,3.20
2019-02-07T10:15:18.965Z,3.20
2019-02-07T10:17:50.576Z,3.50
2019-02-07T10:20:21.672Z,3.50
2019-02-07T10:22:58.347Z,3.50
2019-02-07T10:25:32.196Z,3.50
2019-02-07T10:28:03.290Z,3.60
2019-02-07T10:30:41.771Z,3.80
2019-02-07T10:33:15.762Z,3.80
2019-02-07T10:35:49.611Z,3.80
2019-02-07T10:38:38.844Z,3.90
2019-02-07T10:41:12.710Z,4.00
2019-02-07T10:43:52.883Z,4.00
2019-02-07T10:46:35.803Z,4.10
2019-02-07T10:49:07.223Z,4.20
2019-02-07T10:51:50.263Z,4.20
2019-02-07T10:54:36.707Z,4.30
2019-02-07T10:57:10.457Z,4.30
2019-02-07T10:59:59.858Z,4.50
2019-02-07T11:02:46.429Z,4.60
2019-02-07T11:05:32.918Z,4.60
2019-02-07T11:08:09.932Z,4.70
2019-02-07T11:10:57.626Z,4.70
2019-02-07T11:13:47.205Z,4.80
2019-02-07T11:16:30.127Z,4.90
2019-02-07T11:19:04.105Z,5.00
2019-02-07T11:21:50.387Z,5.10
2019-02-07T11:24:23.983Z,5.10
2019-02-07T11:27:11.561Z,5.30
2019-02-07T11:29:42.648Z,5.20
2019-02-07T11:32:16.414Z,5.20
2019-02-07T11:34:50.019Z,5.20
2019-02-07T11:37:30.057Z,5.20
2019-02-07T11:40:13.450Z,5.20
2019-02-07T11:42:47.902Z,5.40
2019-02-07T11:45:19.476Z,5.30
2019-02-07T11:47:59.524Z,5.50
2019-02-07T11:50:31.326Z,5.60
2019-02-07T11:53:15.057Z,5.50
2019-02-07T11:55:46.337Z,5.60
2019-02-07T11:58:17.418Z,5.60
2019-02-07T12:00:49.943Z,5.50
2019-02-07T12:03:23.997Z,5.60
2019-02-07T12:05:55.122Z,5.70
2019-02-07T12:08:28.900Z,5.70
2019-02-07T12:11:05.701Z,5.70
2019-02-07T12:13:53.019Z,5.70
2019-02-07T12:16:29.629Z,5.60
2019-02-07T12:19:05.423Z,5.70
2019-02-07T12:21:39.431Z,5.70
2019-02-07T12:24:19.702Z,5.70
2019-02-07T12:26:50.805Z,5.80
2019-02-07T12:29:38.634Z,5.80
2019-02-07T12:32:25.643Z,5.80
2019-02-07T12:35:00.996Z,5.90
2019-02-07T12:37:50.417Z,6.00
2019-02-07T12:40:37.852Z,5.90
2019-02-07T12:43:27.176Z,6.00
2019-02-07T12:45:58.260Z,5.60
2019-02-07T12:48:35.103Z,6.10
2019-02-07T12:51:16.857Z,6.10
2019-02-07T12:54:04.353Z,5.70
2019-02-07T12:56:50.526Z,6.10
2019-02-07T12:59:21.803Z,6.00
2019-02-07T13:02:02.633Z,6.10
2019-02-07T13:04:36.726Z,6.10
2019-02-07T13:10:03.738Z,6.20
2019-02-07T13:12:51.538Z,6.30
2019-02-07T13:15:39.042Z,6.40
2019-02-07T13:18:18.908Z,6.40
2019-02-07T13:20:50.226Z,6.60
2019-02-07T13:23:21.449Z,6.40
2019-02-07T13:25:58.741Z,6.60
2019-02-07T13:28:32.683Z,6.60
2019-02-07T13:31:20.258Z,6.60
2019-02-07T13:34:06.386Z,6.70
2019-02-07T13:36:52.282Z,6.70
2019-02-07T13:39:26.093Z,6.60
2019-02-07T13:41:57.222Z,6.70
2019-02-07T13:44:33.792Z,6.70
2019-02-07T13:49:52.989Z,6.80
2019-02-07T13:52:27.110Z,6.80
2019-02-07T13:55:14.291Z,6.70
2019-02-07T13:58:00.697Z,6.80
2019-02-07T14:00:34.791Z,6.80
2019-02-07T14:03:22.679Z,6.80
2019-02-07T14:06:02.752Z,6.80
2019-02-07T14:08:39.869Z,6.80
2019-02-07T14:11:19.901Z,6.70
2019-02-07T14:13:56.766Z,6.70
2019-02-07T14:16:36.413Z,6.80
2019-02-07T14:19:10.573Z,6.80
2019-02-07T14:21:41.703Z,6.80
2019-02-07T14:24:18.980Z,6.80
2019-02-07T14:26:50.104Z,6.80
2019-02-07T14:29:36.261Z,6.90
2019-02-07T14:32:10.179Z,6.80
2019-02-07T14:34:57.436Z,6.80
2019-02-07T14:37:31.456Z,6.80
2019-02-07T14:40:08.799Z,6.80
2019-02-07T14:42:45.965Z,6.90
2019-02-07T14:45:29.937Z,6.70
2019-02-07T14:47:59.433Z,6.80
2019-02-07T14:50:29.188Z,6.70
2019-02-07T14:52:58.637Z,6.70
2019-02-07T14:55:28.134Z,6.70
2019-02-07T14:57:57.692Z,6.70
2019-02-07T15:00:27.880Z,6.60
2019-02-07T15:02:57.339Z,6.60
2019-02-07T15:05:26.834Z,6.60
2019-02-07T15:07:56.277Z,6.70
2019-02-07T15:10:25.834Z,6.50
2019-02-07T15:12:55.294Z,6.60
2019-02-07T15:15:24.757Z,6.60
2019-02-07T15:17:54.221Z,6.50
2019-02-07T15:20:26.206Z,6.40
2019-02-07T15:22:55.095Z,6.50
2019-02-07T15:25:24.553Z,6.40
2019-02-07T15:27:54.047Z,6.30
2019-02-07T15:30:23.669Z,6.20
2019-02-07T15:32:53.119Z,6.20
2019-02-07T15:35:30.602Z,6.00
2019-02-07T15:38:00.387Z,6.20
2019-02-07T15:40:29.958Z,6.10
2019-02-07T15:42:59.682Z,6.00
2019-02-07T15:45:29.743Z,6.10
2019-02-07T15:47:59.234Z,5.90
2019-02-07T15:50:37.590Z,5.60
2019-02-07T15:53:02.177Z,5.70
2019-02-07T15:55:31.710Z,5.90
2019-02-07T15:58:01.495Z,5.80
2019-02-07T16:00:51.367Z,5.60
2019-02-07T16:03:37.545Z,5.70
2019-02-07T16:06:07.375Z,5.90
2019-02-07T16:08:36.830Z,5.90
2019-02-07T16:11:07.060Z,5.90
2019-02-07T16:13:36.824Z,5.90
2019-02-07T16:16:06.484Z,5.60
2019-02-07T16:18:35.985Z,5.50
2019-02-07T16:21:05.780Z,5.40
2019-02-07T16:23:35.284Z,5.50
2019-02-07T16:26:04.813Z,5.70
2019-02-07T16:28:34.258Z,5.60
2019-02-07T16:31:07.186Z,5.70
2019-02-07T16:33:36.725Z,5.60
2019-02-07T16:36:06.901Z,5.60
2019-02-07T16:38:36.619Z,5.50
2019-02-07T16:41:06.553Z,5.40
2019-02-07T16:43:36.017Z,5.40
2019-02-07T16:46:06.531Z,5.40
2019-02-07T16:48:35.980Z,5.30
2019-02-07T16:51:06.351Z,5.50
2019-02-07T16:53:37.927Z,5.30
2019-02-07T16:56:07.996Z,5.20
2019-02-07T16:58:37.466Z,5.10
2019-02-07T17:01:09.573Z,5.10
2019-02-07T17:03:39.892Z,5.20
2019-02-07T17:06:09.601Z,5.20
2019-02-07T17:08:39.070Z,5.20
2019-02-07T17:11:08.873Z,5.10
2019-02-07T17:13:38.451Z,4.90
2019-02-07T17:16:41.638Z,5.00
2019-02-07T17:20:01.322Z,4.90
2019-02-07T17:22:31.171Z,4.80
2019-02-07T17:25:00.737Z,4.80
2019-02-07T17:27:30.227Z,4.70
2019-02-07T17:29:59.772Z,4.80
2019-02-07T17:32:30.274Z,4.70
2019-02-07T17:34:59.778Z,4.70
2019-02-07T17:37:29.321Z,4.70
2019-02-07T17:40:00.941Z,4.80
2019-02-07T17:42:30.443Z,4.80
2019-02-07T17:44:59.904Z,4.90
2019-02-07T17:47:29.363Z,4.70
2019-02-07T17:50:00.611Z,4.70
2019-02-07T17:52:30.123Z,4.80
2019-02-07T17:55:00.422Z,4.90
2019-02-07T17:57:29.921Z,4.70
2019-02-07T17:59:59.423Z,4.80
2019-02-07T18:02:28.879Z,4.90
2019-02-07T18:04:58.405Z,4.80
2019-02-07T18:07:27.852Z,4.80
2019-02-07T18:09:57.308Z,4.60
2019-02-07T18:12:28.378Z,4.60
2019-02-07T18:14:57.884Z,4.40
2019-02-07T18:17:27.373Z,4.50
2019-02-07T18:19:56.867Z,4.60
2019-02-07T18:22:26.343Z,4.70
2019-02-07T18:24:55.792Z,4.70
2019-02-07T18:27:25.301Z,4.60
2019-02-07T18:29:54.781Z,4.60
2019-02-07T18:32:24.264Z,4.50
2019-02-07T18:34:53.763Z,4.70
2019-02-07T18:37:23.212Z,4.80
2019-02-07T18:39:52.696Z,4.80
2019-02-07T18:42:22.159Z,4.70
2019-02-07T18:44:51.626Z,4.70
2019-02-07T18:47:21.245Z,4.50
2019-02-07T18:49:50.749Z,4.70
2019-02-07T18:52:20.212Z,4.70
2019-02-07T18:54:49.686Z,4.70
2019-02-07T18:57:19.211Z,4.50
2019-02-07T18:59:48.726Z,4.60
2019-02-07T19:02:18.182Z,4.60
2019-02-07T19:04:47.681Z,4.50
2019-02-07T19:07:17.519Z,4.50
2019-02-07T19:09:46.975Z,4.50
2019-02-07T19:12:16.467Z,4.70
2019-02-07T19:14:45.926Z,4.60
2019-02-07T19:17:15.385Z,4.60
2019-02-07T19:19:44.884Z,4.50
2019-02-07T19:22:14.631Z,4.60
2019-02-07T19:24:44.076Z,4.40
2019-02-07T19:27:13.575Z,4.60
2019-02-07T19:30:01.343Z,4.60
2019-02-07T19:32:30.838Z,4.40
2019-02-07T19:35:00.388Z,4.20
2019-02-07T19:37:29.827Z,4.40
2019-02-07T19:40:00.607Z,4.40
2019-02-07T19:42:32.392Z,4.30
2019-02-07T19:45:03.520Z,4.20
2019-02-07T19:47:36.439Z,4.10
2019-02-07T19:50:13.765Z,4.10
2019-02-07T19:52:47.029Z,3.90
2019-02-07T19:55:22.344Z,4.10
2019-02-07T19:57:54.789Z,3.80
2019-02-07T20:00:34.558Z,3.90
2019-02-07T20:03:05.656Z,4.00
2019-02-07T20:05:42.632Z,4.00
2019-02-07T20:08:16.116Z,3.90
2019-02-07T20:10:47.657Z,4.00
2019-02-07T20:13:18.616Z,4.00
2019-02-07T20:15:50.372Z,4.00
2019-02-07T20:18:21.647Z,4.20
2019-02-07T20:20:59.462Z,4.20
2019-02-07T20:23:31.251Z,4.20
2019-02-07T20:26:08.987Z,4.20
2019-02-07T20:28:41.421Z,4.10
2019-02-07T20:31:13.811Z,4.20
2019-02-07T20:33:45.871Z,4.20
2019-02-07T20:36:20.692Z,4.10
2019-02-07T20:38:53.446Z,4.20
2019-02-07T20:41:27.622Z,3.80
2019-02-07T20:43:58.970Z,4.10
2019-02-07T20:49:21.997Z,3.90
2019-02-07T20:51:54.411Z,4.00
2019-02-07T20:54:28.545Z,4.00
2019-02-07T20:56:58.923Z,4.00
2019-02-07T20:59:30.863Z,3.90
2019-02-07T21:02:01.242Z,3.70
2019-02-07T21:04:35.056Z,3.70
2019-02-07T21:07:12.506Z,3.60
2019-02-07T21:09:43.990Z,3.50
2019-02-07T21:12:16.431Z,3.50
2019-02-07T21:14:47.340Z,3.30
2019-02-07T21:17:18.454Z,3.30
2019-02-07T21:19:53.316Z,3.40
2019-02-07T21:22:34.489Z,3.60
2019-02-07T21:25:01.403Z,3.30
2019-02-07T21:27:31.893Z,3.20
2019-02-07T21:30:05.771Z,3.20
2019-02-07T21:32:37.834Z,3.10
2019-02-07T21:35:15.809Z,3.40
2019-02-07T21:37:46.290Z,3.50
2019-02-07T21:40:20.510Z,3.40
2019-02-07T21:42:52.837Z,3.20
2019-02-07T21:45:25.280Z,3.40
2019-02-07T21:47:56.364Z,3.40
2019-02-07T21:50:32.232Z,3.50
2019-02-07T21:53:02.643Z,3.50
2019-02-07T21:55:35.349Z,3.70
2019-02-07T21:58:07.771Z,3.70
2019-02-07T22:00:41.500Z,3.60
2019-02-07T22:03:14.424Z,3.80
2019-02-07T22:05:44.831Z,3.80
2019-02-07T22:08:14.660Z,3.60
2019-02-07T22:10:46.801Z,3.50
2019-02-07T22:13:17.111Z,3.30
2019-02-07T22:15:49.092Z,3.50
2019-02-07T22:18:19.858Z,3.70
2019-02-07T22:20:49.616Z,3.60
2019-02-07T22:23:25.249Z,3.60
2019-02-07T22:25:55.792Z,3.60
2019-02-07T22:28:26.077Z,3.60
2019-02-07T22:30:56.138Z,3.60
2019-02-07T22:33:26.624Z,3.50
2019-02-07T22:35:58.351Z,3.60
2019-02-07T22:38:28.683Z,3.70
2019-02-07T22:41:00.401Z,3.70
2019-02-07T22:43:30.726Z,3.80
2019-02-07T22:46:02.621Z,3.80
2019-02-07T22:48:33.112Z,3.70
2019-02-07T22:51:03.613Z,3.50
2019-02-07T22:53:35.307Z,3.30
2019-02-07T22:56:08.618Z,3.10
2019-02-07T22:58:39.631Z,3.40
2019-02-07T23:01:19.088Z,3.40
2019-02-07T23:03:53.016Z,3.50
2019-02-07T23:06:25.452Z,3.50
2019-02-07T23:08:57.612Z,3.70
2019-02-07T23:11:29.254Z,3.50
2019-02-07T23:14:02.688Z,3.40
2019-02-07T23:16:34.398Z,3.20
2019-02-07T23:19:08.354Z,3.10
2019-02-07T23:21:41.773Z,3.10
2019-02-07T23:24:13.013Z,3.30
2019-02-07T23:26:42.887Z,3.10
2019-02-07T23:29:13.551Z,3.00
2019-02-07T23:31:45.639Z,3.20
2019-02-07T23:34:20.983Z,3.20
2019-02-07T23:36:52.463Z,3.20
2019-02-07T23:39:24.130Z,3.30
2019-02-07T23:41:56.153Z,3.20
2019-02-07T23:44:26.406Z,3.30
2019-02-07T23:46:58.026Z,3.30
2019-02-07T23:49:29.712Z,3.30
2019-02-07T23:52:00.219Z,3.20
2019-02-07T23:54:30.401Z,3.20
2019-02-07T23:57:00.505Z,3.20
2019-02-07T23:59:30.513Z,3.20
